sensor_id;sensor_type;location;lat;lon;timestamp;pressure;altitude;pressure_sealevel;temperature;humidity
23059;BME280;30585;51.502;7.218;2022-09-25T00:00:54;153277.09;;;12.24;100.00
23059;BME280;30585;51.502;7.218;2022-09-25T00:03:24;153268.03;;;12.21;100.00
23059;BME280;30585;51.502;7.218;2022-09-25T00:05:58;153224.06;;;12.03;100.00
23059;BME280;30585;51.502;7.218;2022-09-25T00:08:28;153251.22;;;12.14;100.00
23059;BME280;30585;51.502;7.218;2022-09-25T00:10:56;153247.34;;;12.12;100.00
23059;BME280;30585;51.502;7.218;2022-09-25T00:13:24;153256.41;;;12.16;100.00
23059;BME280;30585;51.502;7.218;2022-09-25T00:15:53;153260.25;;;12.18;100.00
23059;BME280;30585;51.502;7.218;2022-09-25T00:18:23;153256.41;;;12.16;100.00
23059;BME280;30585;51.502;7.218;2022-09-25T00:21:06;153225.31;;;12.04;100.00
23059;BME280;30585;51.502;7.218;2022-09-25T00:23:36;153253.81;;;12.15;100.00
23059;BME280;30585;51.502;7.218;2022-09-25T00:26:05;153246.03;;;12.12;100.00
23059;BME280;30585;51.502;7.218;2022-09-25T00:28:33;153234.38;;;12.07;100.00
23059;BME280;30585;51.502;7.218;2022-09-25T00:31:02;153239.56;;;12.09;100.00
23059;BME280;30585;51.502;7.218;2022-09-25T00:33:30;153240.88;;;12.10;100.00
23059;BME280;30585;51.502;7.218;2022-09-25T00:36:00;153255.13;;;12.15;100.00
23059;BME280;30585;51.502;7.218;2022-09-25T00:38:29;153240.88;;;12.10;100.00
23059;BME280;30585;51.502;7.218;2022-09-25T00:41:00;153202.00;;;11.94;100.00
23059;BME280;30585;51.502;7.218;2022-09-25T00:43:34;153252.53;;;12.14;100.00
23059;BME280;30585;51.502;7.218;2022-09-25T00:46:07;153252.53;;;12.14;100.00
23059;BME280;30585;51.502;7.218;2022-09-25T00:48:42;153249.94;;;12.13;100.00
23059;BME280;30585;51.502;7.218;2022-09-25T00:51:13;153205.91;;;11.96;100.00
23059;BME280;30585;51.502;7.218;2022-09-25T00:53:43;153240.88;;;12.10;100.00
23059;BME280;30585;51.502;7.218;2022-09-25T00:56:13;153226.66;;;12.04;100.00
23059;BME280;30585;51.502;7.218;2022-09-25T00:58:41;153246.03;;;12.12;100.00
23059;BME280;30585;51.502;7.218;2022-09-25T01:01:09;153226.66;;;12.04;100.00
23059;BME280;30585;51.502;7.218;2022-09-25T01:03:39;153242.16;;;12.10;100.00
23059;BME280;30585;51.502;7.218;2022-09-25T01:06:13;153212.41;;;11.98;100.00
23059;BME280;30585;51.502;7.218;2022-09-25T01:08:41;153247.34;;;12.12;100.00
23059;BME280;30585;51.502;7.218;2022-09-25T01:11:11;153227.94;;;12.05;100.00
23059;BME280;30585;51.502;7.218;2022-09-25T01:13:39;153235.69;;;12.08;100.00
23059;BME280;30585;51.502;7.218;2022-09-25T01:16:12;153218.88;;;12.01;100.00
23059;BME280;30585;51.502;7.218;2022-09-25T01:18:53;153209.81;;;11.97;100.00
23059;BME280;30585;51.502;7.218;2022-09-25T01:21:31;153224.06;;;12.03;100.00
23059;BME280;30585;51.502;7.218;2022-09-25T01:24:17;153209.81;;;11.97;100.00
23059;BME280;30585;51.502;7.218;2022-09-25T01:27:09;153194.25;;;11.91;100.00
23059;BME280;30585;51.502;7.218;2022-09-25T01:29:44;153186.50;;;11.88;100.00
23059;BME280;30585;51.502;7.218;2022-09-25T01:32:20;153177.44;;;11.84;100.00
23059;BME280;30585;51.502;7.218;2022-09-25T01:34:56;153173.56;;;11.83;100.00
23059;BME280;30585;51.502;7.218;2022-09-25T01:37:31;153185.22;;;11.88;100.00
23059;BME280;30585;51.502;7.218;2022-09-25T01:40:06;153172.25;;;11.82;100.00
23059;BME280;30585;51.502;7.218;2022-09-25T01:42:39;153182.63;;;11.87;100.00
23059;BME280;30585;51.502;7.218;2022-09-25T01:45:14;153173.56;;;11.83;100.00
23059;BME280;30585;51.502;7.218;2022-09-25T01:47:46;153183.91;;;11.87;100.00
23059;BME280;30585;51.502;7.218;2022-09-25T01:50:19;153152.84;;;11.75;100.00
23059;BME280;30585;51.502;7.218;2022-09-25T01:52:52;153182.63;;;11.87;100.00
23059;BME280;30585;51.502;7.218;2022-09-25T01:55:25;153158.03;;;11.77;100.00
23059;BME280;30585;51.502;7.218;2022-09-25T01:58:02;153165.81;;;11.80;100.00
23059;BME280;30585;51.502;7.218;2022-09-25T02:00:36;153139.94;;;11.69;100.00
23059;BME280;30585;51.502;7.218;2022-09-25T02:03:08;153183.91;;;11.87;100.00
23059;BME280;30585;51.502;7.218;2022-09-25T02:05:40;153181.31;;;11.86;100.00
23059;BME280;30585;51.502;7.218;2022-09-25T02:08:17;153168.38;;;11.81;100.00
23059;BME280;30585;51.502;7.218;2022-09-25T02:10:50;153173.56;;;11.83;100.00
23059;BME280;30585;51.502;7.218;2022-09-25T02:13:23;153167.06;;;11.80;100.00
23059;BME280;30585;51.502;7.218;2022-09-25T02:15:55;153161.88;;;11.78;100.00
23059;BME280;30585;51.502;7.218;2022-09-25T02:18:24;153165.81;;;11.80;100.00
23059;BME280;30585;51.502;7.218;2022-09-25T02:21:13;153156.75;;;11.76;100.00
23059;BME280;30585;51.502;7.218;2022-09-25T02:23:49;153167.06;;;11.80;100.00
23059;BME280;30585;51.502;7.218;2022-09-25T02:26:24;153158.03;;;11.77;100.00
23059;BME280;30585;51.502;7.218;2022-09-25T02:28:53;153147.72;;;11.73;100.00
23059;BME280;30585;51.502;7.218;2022-09-25T02:31:26;153134.75;;;11.67;100.00
23059;BME280;30585;51.502;7.218;2022-09-25T02:33:56;153139.94;;;11.69;100.00
23059;BME280;30585;51.502;7.218;2022-09-25T02:36:24;153134.75;;;11.67;100.00
23059;BME280;30585;51.502;7.218;2022-09-25T02:38:54;153121.81;;;11.62;100.00
23059;BME280;30585;51.502;7.218;2022-09-25T02:41:33;153138.59;;;11.69;100.00
23059;BME280;30585;51.502;7.218;2022-09-25T02:44:14;153132.16;;;11.66;100.00
23059;BME280;30585;51.502;7.218;2022-09-25T02:46:50;153151.56;;;11.74;100.00
23059;BME280;30585;51.502;7.218;2022-09-25T02:49:26;153115.31;;;11.60;100.00
23059;BME280;30585;51.502;7.218;2022-09-25T02:52:02;153086.91;;;11.48;100.00
23059;BME280;30585;51.502;7.218;2022-09-25T02:54:35;153114.06;;;11.59;100.00
23059;BME280;30585;51.502;7.218;2022-09-25T02:57:07;153114.06;;;11.59;100.00
23059;BME280;30585;51.502;7.218;2022-09-25T02:59:41;153099.81;;;11.53;100.00
23059;BME280;30585;51.502;7.218;2022-09-25T03:02:14;153124.44;;;11.63;100.00
23059;BME280;30585;51.502;7.218;2022-09-25T03:04:43;153112.78;;;11.59;100.00
23059;BME280;30585;51.502;7.218;2022-09-25T03:07:15;153119.25;;;11.61;100.00
23059;BME280;30585;51.502;7.218;2022-09-25T03:09:45;153095.97;;;11.52;100.00
23059;BME280;30585;51.502;7.218;2022-09-25T03:12:13;153111.47;;;11.58;100.00
23059;BME280;30585;51.502;7.218;2022-09-25T03:14:41;153102.41;;;11.54;100.00
23059;BME280;30585;51.502;7.218;2022-09-25T03:17:10;153121.81;;;11.62;100.00
23059;BME280;30585;51.502;7.218;2022-09-25T03:19:39;153128.28;;;11.65;100.00
23059;BME280;30585;51.502;7.218;2022-09-25T03:22:07;153090.78;;;11.50;100.00
23059;BME280;30585;51.502;7.218;2022-09-25T03:24:35;153106.28;;;11.56;100.00
23059;BME280;30585;51.502;7.218;2022-09-25T03:27:03;153076.56;;;11.44;100.00
23059;BME280;30585;51.502;7.218;2022-09-25T03:29:31;153089.47;;;11.49;100.00
23059;BME280;30585;51.502;7.218;2022-09-25T03:31:59;153072.69;;;11.43;100.00
23059;BME280;30585;51.502;7.218;2022-09-25T03:34:27;153031.28;;;11.26;100.00
23059;BME280;30585;51.502;7.218;2022-09-25T03:36:56;153048.09;;;11.33;100.00
23059;BME280;30585;51.502;7.218;2022-09-25T03:39:25;153033.84;;;11.27;100.00
23059;BME280;30585;51.502;7.218;2022-09-25T03:41:53;153053.28;;;11.35;100.00
23059;BME280;30585;51.502;7.218;2022-09-25T03:44:21;153010.59;;;11.18;100.00
23059;BME280;30585;51.502;7.218;2022-09-25T03:46:49;153036.44;;;11.28;100.00
23059;BME280;30585;51.502;7.218;2022-09-25T03:49:16;153023.53;;;11.23;100.00
23059;BME280;30585;51.502;7.218;2022-09-25T03:51:44;153002.88;;;11.15;100.00
23059;BME280;30585;51.502;7.218;2022-09-25T03:54:14;153019.63;;;11.21;100.00
23059;BME280;30585;51.502;7.218;2022-09-25T03:56:41;153017.09;;;11.20;100.00
23059;BME280;30585;51.502;7.218;2022-09-25T03:59:09;153020.94;;;11.22;100.00
23059;BME280;30585;51.502;7.218;2022-09-25T04:01:37;152991.22;;;11.10;100.00
23059;BME280;30585;51.502;7.218;2022-09-25T04:04:06;153011.91;;;11.18;100.00
23059;BME280;30585;51.502;7.218;2022-09-25T04:06:33;153015.78;;;11.20;100.00
23059;BME280;30585;51.502;7.218;2022-09-25T04:09:01;153006.72;;;11.16;100.00
23059;BME280;30585;51.502;7.218;2022-09-25T04:11:30;152989.91;;;11.10;100.00
23059;BME280;30585;51.502;7.218;2022-09-25T04:13:58;152993.78;;;11.11;100.00
23059;BME280;30585;51.502;7.218;2022-09-25T04:16:26;152980.88;;;11.06;100.00
23059;BME280;30585;51.502;7.218;2022-09-25T04:18:54;152984.72;;;11.07;100.00
23059;BME280;30585;51.502;7.218;2022-09-25T04:21:22;152975.69;;;11.04;100.00
23059;BME280;30585;51.502;7.218;2022-09-25T04:23:50;152960.19;;;10.98;100.00
23059;BME280;30585;51.502;7.218;2022-09-25T04:26:33;152961.47;;;10.98;100.00
23059;BME280;30585;51.502;7.218;2022-09-25T04:29:01;152944.69;;;10.91;100.00
23059;BME280;30585;51.502;7.218;2022-09-25T04:31:29;152943.38;;;10.91;100.00
23059;BME280;30585;51.502;7.218;2022-09-25T04:33:57;152925.28;;;10.84;100.00
23059;BME280;30585;51.502;7.218;2022-09-25T04:36:24;152886.47;;;10.68;100.00
23059;BME280;30585;51.502;7.218;2022-09-25T04:38:52;152891.66;;;10.70;100.00
23059;BME280;30585;51.502;7.218;2022-09-25T04:41:20;152855.50;;;10.56;100.00
23059;BME280;30585;51.502;7.218;2022-09-25T04:43:49;152805.00;;;10.36;100.00
23059;BME280;30585;51.502;7.218;2022-09-25T04:46:17;152815.41;;;10.40;100.00
23059;BME280;30585;51.502;7.218;2022-09-25T04:48:48;152783.06;;;10.27;100.00
23059;BME280;30585;51.502;7.218;2022-09-25T04:51:16;152794.69;;;10.32;100.00
23059;BME280;30585;51.502;7.218;2022-09-25T04:53:44;152802.44;;;10.35;100.00
23059;BME280;30585;51.502;7.218;2022-09-25T04:56:12;152801.16;;;10.34;100.00
23059;BME280;30585;51.502;7.218;2022-09-25T04:58:43;152784.34;;;10.27;100.00
23059;BME280;30585;51.502;7.218;2022-09-25T05:01:12;152749.47;;;10.13;100.00
23059;BME280;30585;51.502;7.218;2022-09-25T05:03:40;152704.22;;;9.95;100.00
23059;BME280;30585;51.502;7.218;2022-09-25T05:06:09;152715.91;;;10.00;100.00
23059;BME280;30585;51.502;7.218;2022-09-25T05:11:05;152724.94;;;10.04;100.00
23059;BME280;30585;51.502;7.218;2022-09-25T05:13:33;152675.84;;;9.84;100.00
23059;BME280;30585;51.502;7.218;2022-09-25T05:16:01;152673.25;;;9.83;100.00
23059;BME280;30585;51.502;7.218;2022-09-25T05:18:30;152671.94;;;9.82;100.00
23059;BME280;30585;51.502;7.218;2022-09-25T05:21:02;152679.72;;;9.86;100.00
23059;BME280;30585;51.502;7.218;2022-09-25T05:23:30;152659.03;;;9.77;100.00
23059;BME280;30585;51.502;7.218;2022-09-25T05:25:58;152621.59;;;9.62;100.00
23059;BME280;30585;51.502;7.218;2022-09-25T05:28:28;152630.63;;;9.66;100.00
23059;BME280;30585;51.502;7.218;2022-09-25T05:30:57;152625.44;;;9.64;100.00
23059;BME280;30585;51.502;7.218;2022-09-25T05:33:29;152606.09;;;9.56;100.00
23059;BME280;30585;51.502;7.218;2022-09-25T05:35:59;152578.94;;;9.45;100.00
23059;BME280;30585;51.502;7.218;2022-09-25T05:38:27;152580.28;;;9.46;100.00
23059;BME280;30585;51.502;7.218;2022-09-25T05:41:00;152560.88;;;9.38;100.00
23059;BME280;30585;51.502;7.218;2022-09-25T05:43:28;152567.34;;;9.41;100.00
23059;BME280;30585;51.502;7.218;2022-09-25T05:45:57;152586.72;;;9.48;100.00
23059;BME280;30585;51.502;7.218;2022-09-25T05:48:25;152617.72;;;9.61;100.00
23059;BME280;30585;51.502;7.218;2022-09-25T05:50:55;152603.50;;;9.55;100.00
23059;BME280;30585;51.502;7.218;2022-09-25T05:53:24;152624.16;;;9.63;100.00
23059;BME280;30585;51.502;7.218;2022-09-25T05:55:53;152603.50;;;9.55;100.00
23059;BME280;30585;51.502;7.218;2022-09-25T05:58:22;152602.19;;;9.55;100.00
23059;BME280;30585;51.502;7.218;2022-09-25T06:00:50;152611.22;;;9.58;100.00
23059;BME280;30585;51.502;7.218;2022-09-25T06:03:19;152573.78;;;9.43;100.00
23059;BME280;30585;51.502;7.218;2022-09-25T06:05:47;152560.88;;;9.38;100.00
23059;BME280;30585;51.502;7.218;2022-09-25T06:08:16;152550.53;;;9.34;100.00
23059;BME280;30585;51.502;7.218;2022-09-25T06:10:50;152544.09;;;9.31;100.00
23059;BME280;30585;51.502;7.218;2022-09-25T06:13:20;152571.25;;;9.42;100.00
23059;BME280;30585;51.502;7.218;2022-09-25T06:15:48;152602.19;;;9.55;100.00
23059;BME280;30585;51.502;7.218;2022-09-25T06:18:18;152611.22;;;9.58;100.00
23059;BME280;30585;51.502;7.218;2022-09-25T06:20:47;152595.75;;;9.52;100.00
23059;BME280;30585;51.502;7.218;2022-09-25T06:23:17;152602.19;;;9.55;100.00
23059;BME280;30585;51.502;7.218;2022-09-25T06:25:45;152607.38;;;9.57;100.00
23059;BME280;30585;51.502;7.218;2022-09-25T06:28:13;152638.38;;;9.69;100.00
23059;BME280;30585;51.502;7.218;2022-09-25T06:30:40;152631.94;;;9.66;100.00
23059;BME280;30585;51.502;7.218;2022-09-25T06:33:09;152690.06;;;9.90;100.00
23059;BME280;30585;51.502;7.218;2022-09-25T06:35:40;152767.53;;;10.21;100.00
23059;BME280;30585;51.502;7.218;2022-09-25T06:38:09;152829.63;;;10.46;100.00
23059;BME280;30585;51.502;7.218;2022-09-25T06:40:38;152870.97;;;10.62;100.00
23059;BME280;30585;51.502;7.218;2022-09-25T06:43:09;152880.03;;;10.66;100.00
23059;BME280;30585;51.502;7.218;2022-09-25T06:45:37;152900.69;;;10.74;100.00
23059;BME280;30585;51.502;7.218;2022-09-25T06:48:07;152953.72;;;10.95;100.00
23059;BME280;30585;51.502;7.218;2022-09-25T06:50:39;152984.72;;;11.07;100.00
23059;BME280;30585;51.502;7.218;2022-09-25T06:53:08;153023.53;;;11.23;100.00
23059;BME280;30585;51.502;7.218;2022-09-25T06:55:38;153063.63;;;11.39;100.00
23059;BME280;30585;51.502;7.218;2022-09-25T06:58:09;153049.41;;;11.33;100.00
23059;BME280;30585;51.502;7.218;2022-09-25T07:00:37;153111.47;;;11.58;100.00
23059;BME280;30585;51.502;7.218;2022-09-25T07:03:06;153105.00;;;11.56;100.00
23059;BME280;30585;51.502;7.218;2022-09-25T07:05:51;153156.75;;;11.76;100.00
23059;BME280;30585;51.502;7.218;2022-09-25T07:08:19;153198.13;;;11.93;100.00
23059;BME280;30585;51.502;7.218;2022-09-25T07:10:49;153215.00;;;11.99;100.00
23059;BME280;30585;51.502;7.218;2022-09-25T07:13:19;153242.16;;;12.10;100.00
23059;BME280;30585;51.502;7.218;2022-09-25T07:15:50;153240.88;;;12.10;100.00
23059;BME280;30585;51.502;7.218;2022-09-25T07:18:19;153271.91;;;12.22;100.00
23059;BME280;30585;51.502;7.218;2022-09-25T07:20:47;153198.13;;;11.93;100.00
23059;BME280;30585;51.502;7.218;2022-09-25T07:23:16;153292.66;;;12.30;100.00
23059;BME280;30585;51.502;7.218;2022-09-25T07:25:45;153336.66;;;12.48;100.00
23059;BME280;30585;51.502;7.218;2022-09-25T07:28:14;153365.13;;;12.59;100.00
23059;BME280;30585;51.502;7.218;2022-09-25T07:30:45;153359.94;;;12.57;100.00
23059;BME280;30585;51.502;7.218;2022-09-25T07:33:13;153419.44;;;12.81;100.00
23059;BME280;30585;51.502;7.218;2022-09-25T07:35:41;153449.25;;;12.93;100.00
23059;BME280;30585;51.502;7.218;2022-09-25T07:38:09;153494.53;;;13.11;100.00
23059;BME280;30585;51.502;7.218;2022-09-25T07:40:37;153565.81;;;13.39;100.00
23059;BME280;30585;51.502;7.218;2022-09-25T07:43:04;153613.72;;;13.59;100.00
23059;BME280;30585;51.502;7.218;2022-09-25T07:45:34;153655.19;;;13.75;100.00
23059;BME280;30585;51.502;7.218;2022-09-25T07:48:02;153647.41;;;13.72;100.00
23059;BME280;30585;51.502;7.218;2022-09-25T07:50:31;153580.06;;;13.45;100.00
23059;BME280;30585;51.502;7.218;2022-09-25T07:52:59;153538.56;;;13.29;100.00
23059;BME280;30585;51.502;7.218;2022-09-25T07:55:27;153605.97;;;13.55;100.00
23059;BME280;30585;51.502;7.218;2022-09-25T07:57:56;153657.75;;;13.76;100.00
23059;BME280;30585;51.502;7.218;2022-09-25T08:00:24;153684.97;;;13.87;97.96
23059;BME280;30585;51.502;7.218;2022-09-25T08:02:55;153714.75;;;13.99;100.00
23059;BME280;30585;51.502;7.218;2022-09-25T08:05:24;153761.38;;;14.17;100.00
23059;BME280;30585;51.502;7.218;2022-09-25T08:07:53;153876.72;;;14.63;100.00
23059;BME280;30585;51.502;7.218;2022-09-25T08:10:21;153891.06;;;14.69;97.83
23059;BME280;30585;51.502;7.218;2022-09-25T08:12:48;153926.03;;;14.83;99.63
23059;BME280;30585;51.502;7.218;2022-09-25T08:15:16;153975.31;;;15.03;96.38
23059;BME280;30585;51.502;7.218;2022-09-25T08:17:44;154002.50;;;15.14;90.31
23059;BME280;30585;51.502;7.218;2022-09-25T08:20:13;153933.78;;;14.86;91.19
23059;BME280;30585;51.502;7.218;2022-09-25T08:22:41;153958.44;;;14.96;92.76
23059;BME280;30585;51.502;7.218;2022-09-25T08:25:09;154020.66;;;15.21;89.45
23059;BME280;30585;51.502;7.218;2022-09-25T08:27:38;154033.63;;;15.26;85.76
23059;BME280;30585;51.502;7.218;2022-09-25T08:30:07;154031.03;;;15.25;86.22
23059;BME280;30585;51.502;7.218;2022-09-25T08:32:36;153988.25;;;15.08;89.21
23059;BME280;30585;51.502;7.218;2022-09-25T08:35:04;154051.78;;;15.33;89.60
23059;BME280;30585;51.502;7.218;2022-09-25T08:37:33;154139.94;;;15.68;91.13
23059;BME280;30585;51.502;7.218;2022-09-25T08:40:01;154089.38;;;15.48;87.35
23059;BME280;30585;51.502;7.218;2022-09-25T08:42:32;154133.47;;;15.66;88.49
23059;BME280;30585;51.502;7.218;2022-09-25T08:45:06;154219.16;;;16.00;88.30
23059;BME280;30585;51.502;7.218;2022-09-25T08:47:56;154172.41;;;15.81;84.47
23059;BME280;30585;51.502;7.218;2022-09-25T08:50:42;154202.28;;;15.93;89.45
23059;BME280;30585;51.502;7.218;2022-09-25T08:53:16;154254.16;;;16.14;84.87
23059;BME280;30585;51.502;7.218;2022-09-25T08:55:52;154338.50;;;16.47;82.31
23059;BME280;30585;51.502;7.218;2022-09-25T08:58:39;154324.22;;;16.42;82.24
23059;BME280;30585;51.502;7.218;2022-09-25T09:01:11;154363.13;;;16.57;81.95
23059;BME280;30585;51.502;7.218;2022-09-25T09:03:44;154242.50;;;16.09;81.29
23059;BME280;30585;51.502;7.218;2022-09-25T09:06:15;154181.53;;;15.85;80.77
23059;BME280;30585;51.502;7.218;2022-09-25T09:08:50;154123.13;;;15.62;80.65
23059;BME280;30585;51.502;7.218;2022-09-25T09:11:22;154067.31;;;15.39;83.39
23059;BME280;30585;51.502;7.218;2022-09-25T09:13:54;154053.09;;;15.34;84.51
23059;BME280;30585;51.502;7.218;2022-09-25T09:16:30;153985.63;;;15.07;84.96
23059;BME280;30585;51.502;7.218;2022-09-25T09:18:59;154041.44;;;15.29;81.13
23059;BME280;30585;51.502;7.218;2022-09-25T09:21:33;154182.81;;;15.85;84.47
23059;BME280;30585;51.502;7.218;2022-09-25T09:24:10;154268.44;;;16.19;81.09
23059;BME280;30585;51.502;7.218;2022-09-25T09:29:52;154386.50;;;16.66;76.04
23059;BME280;30585;51.502;7.218;2022-09-25T09:32:38;154411.19;;;16.76;78.74
23059;BME280;30585;51.502;7.218;2022-09-25T09:35:16;154413.78;;;16.77;76.71
23059;BME280;30585;51.502;7.218;2022-09-25T09:37:56;154399.50;;;16.72;71.76
23059;BME280;30585;51.502;7.218;2022-09-25T09:40:38;154380.00;;;16.64;71.28
23059;BME280;30585;51.502;7.218;2022-09-25T09:43:21;154422.84;;;16.81;72.46
23059;BME280;30585;51.502;7.218;2022-09-25T09:46:02;154508.56;;;17.15;74.70
23059;BME280;30585;51.502;7.218;2022-09-25T09:48:37;154543.59;;;17.29;75.23
23059;BME280;30585;51.502;7.218;2022-09-25T09:51:10;154448.81;;;16.91;70.16
23059;BME280;30585;51.502;7.218;2022-09-25T09:53:45;154302.16;;;16.33;74.92
23059;BME280;30585;51.502;7.218;2022-09-25T09:56:18;154303.47;;;16.33;71.41
23059;BME280;30585;51.502;7.218;2022-09-25T09:58:49;154254.16;;;16.14;73.30
23059;BME280;30585;51.502;7.218;2022-09-25T10:01:22;154235.97;;;16.07;71.96
23059;BME280;30585;51.502;7.218;2022-09-25T10:04:10;154199.69;;;15.92;73.42
23059;BME280;30585;51.502;7.218;2022-09-25T10:06:42;154150.34;;;15.72;72.65
23059;BME280;30585;51.502;7.218;2022-09-25T10:09:14;154079.00;;;15.44;72.01
23059;BME280;30585;51.502;7.218;2022-09-25T10:11:44;154124.41;;;15.62;70.61
23059;BME280;30585;51.502;7.218;2022-09-25T10:14:16;154184.13;;;15.86;74.71
23059;BME280;30585;51.502;7.218;2022-09-25T10:16:47;154103.66;;;15.54;71.03
23059;BME280;30585;51.502;7.218;2022-09-25T10:19:18;154082.91;;;15.46;71.65
23059;BME280;30585;51.502;7.218;2022-09-25T10:21:50;154107.53;;;15.55;74.27
23059;BME280;30585;51.502;7.218;2022-09-25T10:24:45;154226.91;;;16.03;76.04
23059;BME280;30585;51.502;7.218;2022-09-25T10:27:24;154317.75;;;16.39;72.02
23059;BME280;30585;51.502;7.218;2022-09-25T10:30:05;154319.03;;;16.40;72.09
23059;BME280;30585;51.502;7.218;2022-09-25T10:32:42;154330.69;;;16.44;67.01
23059;BME280;30585;51.502;7.218;2022-09-25T10:35:15;154342.38;;;16.49;68.08
23059;BME280;30585;51.502;7.218;2022-09-25T10:37:47;154377.41;;;16.63;66.07
23059;BME280;30585;51.502;7.218;2022-09-25T10:40:36;154338.50;;;16.47;69.97
23059;BME280;30585;51.502;7.218;2022-09-25T10:43:16;154348.84;;;16.51;67.77
23059;BME280;30585;51.502;7.218;2022-09-25T10:45:46;154396.91;;;16.71;64.44
23059;BME280;30585;51.502;7.218;2022-09-25T10:48:27;154387.81;;;16.67;66.42
23059;BME280;30585;51.502;7.218;2022-09-25T10:51:14;154441.00;;;16.88;65.54
23059;BME280;30585;51.502;7.218;2022-09-25T10:53:46;154498.19;;;17.11;65.45
23059;BME280;30585;51.502;7.218;2022-09-25T10:56:17;154568.28;;;17.39;65.62
23059;BME280;30585;51.502;7.218;2022-09-25T10:58:50;154563.09;;;17.37;63.92
23059;BME280;30585;51.502;7.218;2022-09-25T11:01:29;154412.44;;;16.77;63.55
23059;BME280;30585;51.502;7.218;2022-09-25T11:03:57;154304.75;;;16.34;65.14
23059;BME280;30585;51.502;7.218;2022-09-25T11:06:27;154264.53;;;16.18;63.92
23059;BME280;30585;51.502;7.218;2022-09-25T11:09:02;154296.94;;;16.31;65.74
23059;BME280;30585;51.502;7.218;2022-09-25T11:11:31;154451.41;;;16.92;66.84
23059;BME280;30585;51.502;7.218;2022-09-25T11:14:02;154516.34;;;17.18;65.26
23059;BME280;30585;51.502;7.218;2022-09-25T11:16:42;154628.00;;;17.63;60.39
23059;BME280;30585;51.502;7.218;2022-09-25T11:19:13;154589.06;;;17.47;64.23
23059;BME280;30585;51.502;7.218;2022-09-25T11:21:48;154541.00;;;17.28;64.22
23059;BME280;30585;51.502;7.218;2022-09-25T11:24:21;154452.69;;;16.93;59.40
23059;BME280;30585;51.502;7.218;2022-09-25T11:26:55;154383.91;;;16.65;61.26
23059;BME280;30585;51.502;7.218;2022-09-25T11:29:34;154324.22;;;16.42;61.74
23059;BME280;30585;51.502;7.218;2022-09-25T11:32:11;154329.44;;;16.44;62.61
23059;BME280;30585;51.502;7.218;2022-09-25T11:37:52;154491.66;;;17.08;62.84
23059;BME280;30585;51.502;7.218;2022-09-25T11:40:31;154520.22;;;17.20;61.94
23059;BME280;30585;51.502;7.218;2022-09-25T11:43:24;154442.28;;;16.89;64.12
23059;BME280;30585;51.502;7.218;2022-09-25T11:46:03;154376.13;;;16.62;64.41
23059;BME280;30585;51.502;7.218;2022-09-25T11:48:41;154272.31;;;16.21;62.83
23059;BME280;30585;51.502;7.218;2022-09-25T11:51:18;154238.56;;;16.08;65.08
23059;BME280;30585;51.502;7.218;2022-09-25T11:53:55;154235.97;;;16.07;64.39
23059;BME280;30585;51.502;7.218;2022-09-25T11:56:50;154394.28;;;16.70;65.32
23059;BME280;30585;51.502;7.218;2022-09-25T11:59:34;154459.22;;;16.95;62.84
23059;BME280;30585;51.502;7.218;2022-09-25T12:02:15;154556.63;;;17.34;62.95
23059;BME280;30585;51.502;7.218;2022-09-25T12:05:03;154668.25;;;17.79;61.35
23059;BME280;30585;51.502;7.218;2022-09-25T12:07:48;154746.25;;;18.10;61.31
23059;BME280;30585;51.502;7.218;2022-09-25T12:10:28;154819.00;;;18.38;54.98
23059;BME280;30585;51.502;7.218;2022-09-25T12:13:02;154772.22;;;18.20;53.47
23059;BME280;30585;51.502;7.218;2022-09-25T12:15:46;154617.63;;;17.58;55.69
23059;BME280;30585;51.502;7.218;2022-09-25T12:18:27;154541.00;;;17.28;57.52
23059;BME280;30585;51.502;7.218;2022-09-25T12:21:03;154481.31;;;17.04;60.42
23059;BME280;30585;51.502;7.218;2022-09-25T12:23:36;154365.75;;;16.58;60.48
23059;BME280;30585;51.502;7.218;2022-09-25T12:26:18;154403.38;;;16.73;61.19
23059;BME280;30585;51.502;7.218;2022-09-25T12:28:58;154390.41;;;16.68;59.92
23059;BME280;30585;51.502;7.218;2022-09-25T12:31:35;154377.41;;;16.63;61.33
23059;BME280;30585;51.502;7.218;2022-09-25T12:34:17;154461.81;;;16.96;64.98
23059;BME280;30585;51.502;7.218;2022-09-25T12:36:56;154522.84;;;17.21;61.89
23059;BME280;30585;51.502;7.218;2022-09-25T12:39:34;154599.41;;;17.51;58.99
23059;BME280;30585;51.502;7.218;2022-09-25T12:42:09;154715.06;;;17.97;61.32
23059;BME280;30585;51.502;7.218;2022-09-25T12:44:46;154816.38;;;18.37;62.27
23059;BME280;30585;51.502;7.218;2022-09-25T12:47:21;154865.75;;;18.57;60.77
23059;BME280;30585;51.502;7.218;2022-09-25T12:49:55;154847.59;;;18.50;59.92
23059;BME280;30585;51.502;7.218;2022-09-25T12:52:27;154882.66;;;18.64;56.93
23059;BME280;30585;51.502;7.218;2022-09-25T12:55:03;154861.88;;;18.56;59.48
23059;BME280;30585;51.502;7.218;2022-09-25T12:57:37;154863.16;;;18.56;59.15
23059;BME280;30585;51.502;7.218;2022-09-25T13:00:22;154848.88;;;18.50;59.09
23059;BME280;30585;51.502;7.218;2022-09-25T13:02:54;154981.50;;;19.03;53.54
23059;BME280;30585;51.502;7.218;2022-09-25T13:05:32;154942.41;;;18.88;55.84
23059;BME280;30585;51.502;7.218;2022-09-25T13:08:04;154916.44;;;18.77;55.57
23059;BME280;30585;51.502;7.218;2022-09-25T13:10:37;155012.63;;;19.15;52.26
23059;BME280;30585;51.502;7.218;2022-09-25T13:13:10;155015.25;;;19.17;55.11
23059;BME280;30585;51.502;7.218;2022-09-25T13:15:40;154993.19;;;19.08;50.46
23059;BME280;30585;51.502;7.218;2022-09-25T13:18:15;154796.88;;;18.30;50.36
23059;BME280;30585;51.502;7.218;2022-09-25T13:20:49;155000.94;;;19.11;55.56